sensor_id;sensor_type;location;lat;lon;timestamp;P1;durP1;ratioP1;P2;durP2;ratioP2
46399;SDS011;32104;50.838;4.388;2023-03-23T00:08:11;6.30;;;1.65;;
46399;SDS011;32104;50.838;4.388;2023-03-23T00:10:37;2.55;;;1.27;;
46399;SDS011;32104;50.838;4.388;2023-03-23T00:13:04;3.05;;;1.30;;
46399;SDS011;32104;50.838;4.388;2023-03-23T00:15:29;3.15;;;1.77;;
46399;SDS011;32104;50.838;4.388;2023-03-23T00:18:00;1.92;;;1.20;;
46399;SDS011;32104;50.838;4.388;2023-03-23T00:20:30;4.38;;;1.50;;
46399;SDS011;32104;50.838;4.388;2023-03-23T00:23:04;1.88;;;1.23;;
46399;SDS011;32104;50.838;4.388;2023-03-23T00:25:32;3.60;;;1.50;;
46399;SDS011;32104;50.838;4.388;2023-03-23T00:27:58;2.60;;;1.00;;
46399;SDS011;32104;50.838;4.388;2023-03-23T00:30:23;4.00;;;1.60;;
46399;SDS011;32104;50.838;4.388;2023-03-23T00:32:49;1.73;;;1.17;;
46399;SDS011;32104;50.838;4.388;2023-03-23T00:35:16;2.53;;;1.50;;
46399;SDS011;32104;50.838;4.388;2023-03-23T00:37:43;1.98;;;1.23;;
46399;SDS011;32104;50.838;4.388;2023-03-23T00:40:09;2.75;;;1.23;;
46399;SDS011;32104;50.838;4.388;2023-03-23T00:42:35;4.07;;;1.45;;
46399;SDS011;32104;50.838;4.388;2023-03-23T00:45:03;3.03;;;1.42;;
46399;SDS011;32104;50.838;4.388;2023-03-23T00:47:36;2.65;;;1.40;;
46399;SDS011;32104;50.838;4.388;2023-03-23T00:50:02;1.85;;;1.10;;
46399;SDS011;32104;50.838;4.388;2023-03-23T00:52:30;1.65;;;1.20;;
46399;SDS011;32104;50.838;4.388;2023-03-23T00:54:56;3.53;;;1.00;;
46399;SDS011;32104;50.838;4.388;2023-03-23T00:57:22;7.35;;;1.48;;
46399;SDS011;32104;50.838;4.388;2023-03-23T00:59:50;2.33;;;1.15;;
46399;SDS011;32104;50.838;4.388;2023-03-23T01:02:16;3.30;;;1.20;;
46399;SDS011;32104;50.838;4.388;2023-03-23T01:04:43;4.30;;;1.55;;
46399;SDS011;32104;50.838;4.388;2023-03-23T01:07:10;1.30;;;1.10;;
46399;SDS011;32104;50.838;4.388;2023-03-23T01:09:39;3.53;;;1.20;;
46399;SDS011;32104;50.838;4.388;2023-03-23T01:12:05;2.42;;;1.38;;
46399;SDS011;32104;50.838;4.388;2023-03-23T01:14:31;1.45;;;1.00;;
46399;SDS011;32104;50.838;4.388;2023-03-23T01:16:56;2.55;;;1.15;;
46399;SDS011;32104;50.838;4.388;2023-03-23T01:19:22;1.70;;;1.20;;
46399;SDS011;32104;50.838;4.388;2023-03-23T01:21:48;5.50;;;1.70;;
46399;SDS011;32104;50.838;4.388;2023-03-23T01:24:14;6.40;;;1.17;;
46399;SDS011;32104;50.838;4.388;2023-03-23T01:26:40;3.50;;;1.40;;
46399;SDS011;32104;50.838;4.388;2023-03-23T01:29:05;2.00;;;1.30;;
46399;SDS011;32104;50.838;4.388;2023-03-23T01:31:31;1.70;;;1.20;;
46399;SDS011;32104;50.838;4.388;2023-03-23T01:33:57;3.47;;;1.30;;
46399;SDS011;32104;50.838;4.388;2023-03-23T01:36:24;1.92;;;1.00;;
46399;SDS011;32104;50.838;4.388;2023-03-23T01:38:54;3.30;;;1.55;;
46399;SDS011;32104;50.838;4.388;2023-03-23T01:41:20;5.60;;;1.15;;
46399;SDS011;32104;50.838;4.388;2023-03-23T01:46:48;3.78;;;1.58;;
46399;SDS011;32104;50.838;4.388;2023-03-23T01:49:17;1.40;;;0.90;;
46399;SDS011;32104;50.838;4.388;2023-03-23T01:51:49;3.60;;;1.27;;
46399;SDS011;32104;50.838;4.388;2023-03-23T01:54:17;2.45;;;1.05;;
46399;SDS011;32104;50.838;4.388;2023-03-23T01:57:05;5.75;;;1.38;;
46399;SDS011;32104;50.838;4.388;2023-03-23T01:59:35;2.67;;;1.08;;
46399;SDS011;32104;50.838;4.388;2023-03-23T02:02:02;3.22;;;1.00;;
46399;SDS011;32104;50.838;4.388;2023-03-23T02:04:29;1.10;;;0.90;;
46399;SDS011;32104;50.838;4.388;2023-03-23T02:09:26;2.35;;;1.20;;
46399;SDS011;32104;50.838;4.388;2023-03-23T02:11:54;1.17;;;0.85;;
46399;SDS011;32104;50.838;4.388;2023-03-23T02:14:20;3.53;;;0.95;;
46399;SDS011;32104;50.838;4.388;2023-03-23T07:56:08;0.85;;;0.30;;
46399;SDS011;32104;50.838;4.388;2023-03-23T07:58:34;2.05;;;0.47;;
46399;SDS011;32104;50.838;4.388;2023-03-23T08:01:00;2.03;;;0.47;;
46399;SDS011;32104;50.838;4.388;2023-03-23T08:03:25;2.38;;;0.50;;
46399;SDS011;32104;50.838;4.388;2023-03-23T08:05:51;0.40;;;0.30;;
46399;SDS011;32104;50.838;4.388;2023-03-23T08:08:17;2.90;;;0.40;;
46399;SDS011;32104;50.838;4.388;2023-03-23T08:10:43;2.47;;;0.40;;
46399;SDS011;32104;50.838;4.388;2023-03-23T08:13:09;2.03;;;0.30;;
46399;SDS011;32104;50.838;4.388;2023-03-23T08:15:35;2.60;;;0.40;;
46399;SDS011;32104;50.838;4.388;2023-03-23T08:18:02;2.85;;;0.50;;
46399;SDS011;32104;50.838;4.388;2023-03-23T08:20:29;3.58;;;0.30;;
46399;SDS011;32104;50.838;4.388;2023-03-23T08:22:55;0.40;;;0.30;;
46399;SDS011;32104;50.838;4.388;2023-03-23T08:25:22;2.65;;;0.30;;
46399;SDS011;32104;50.838;4.388;2023-03-23T08:27:52;1.45;;;0.30;;
46399;SDS011;32104;50.838;4.388;2023-03-23T08:30:19;1.70;;;0.30;;
46399;SDS011;32104;50.838;4.388;2023-03-23T08:32:46;2.05;;;0.30;;
46399;SDS011;32104;50.838;4.388;2023-03-23T08:35:13;0.50;;;0.20;;
46399;SDS011;32104;50.838;4.388;2023-03-23T08:37:40;0.20;;;0.10;;
46399;SDS011;32104;50.838;4.388;2023-03-23T08:42:36;2.70;;;0.30;;
46399;SDS011;32104;50.838;4.388;2023-03-23T08:45:04;1.70;;;0.30;;
46399;SDS011;32104;50.838;4.388;2023-03-23T08:47:32;1.38;;;0.15;;
46399;SDS011;32104;50.838;4.388;2023-03-23T08:50:02;4.85;;;0.30;;
46399;SDS011;32104;50.838;4.388;2023-03-23T11:31:01;6.13;;;0.63;;
46399;SDS011;32104;50.838;4.388;2023-03-23T11:33:37;5.32;;;0.80;;
46399;SDS011;32104;50.838;4.388;2023-03-23T11:36:19;2.88;;;0.90;;
46399;SDS011;32104;50.838;4.388;2023-03-23T11:38:48;6.25;;;0.60;;
46399;SDS011;32104;50.838;4.388;2023-03-23T11:41:21;3.03;;;0.40;;
46399;SDS011;32104;50.838;4.388;2023-03-23T11:43:50;4.50;;;0.75;;
46399;SDS011;32104;50.838;4.388;2023-03-23T11:46:34;3.13;;;0.50;;
46399;SDS011;32104;50.838;4.388;2023-03-23T11:49:44;5.35;;;0.47;;
46399;SDS011;32104;50.838;4.388;2023-03-23T11:52:33;6.38;;;0.60;;
46399;SDS011;32104;50.838;4.388;2023-03-23T11:55:09;5.85;;;0.57;;
46399;SDS011;32104;50.838;4.388;2023-03-23T11:58:14;1.33;;;0.50;;
46399;SDS011;32104;50.838;4.388;2023-03-23T12:00:56;2.63;;;0.47;;
46399;SDS011;32104;50.838;4.388;2023-03-23T12:06:14;4.28;;;0.60;;
46399;SDS011;32104;50.838;4.388;2023-03-23T12:19:00;3.30;;;0.40;;
46399;SDS011;32104;50.838;4.388;2023-03-23T12:22:09;4.07;;;0.70;;
46399;SDS011;32104;50.838;4.388;2023-03-23T12:28:17;4.32;;;0.50;;
46399;SDS011;32104;50.838;4.388;2023-03-23T12:49:39;3.72;;;0.57;;
46399;SDS011;32104;50.838;4.388;2023-03-23T12:52:13;6.47;;;0.52;;
46399;SDS011;32104;50.838;4.388;2023-03-23T12:57:58;6.35;;;0.75;;
46399;SDS011;32104;50.838;4.388;2023-03-23T13:00:50;1.92;;;0.50;;
46399;SDS011;32104;50.838;4.388;2023-03-23T13:03:32;6.50;;;0.70;;
46399;SDS011;32104;50.838;4.388;2023-03-23T13:06:36;3.10;;;0.50;;
46399;SDS011;32104;50.838;4.388;2023-03-23T13:11:56;3.67;;;0.73;;
46399;SDS011;32104;50.838;4.388;2023-03-23T13:17:47;4.43;;;0.70;;
46399;SDS011;32104;50.838;4.388;2023-03-23T13:20:34;2.15;;;0.50;;
46399;SDS011;32104;50.838;4.388;2023-03-23T13:23:25;2.72;;;0.40;;
46399;SDS011;32104;50.838;4.388;2023-03-23T13:26:29;4.15;;;0.60;;
46399;SDS011;32104;50.838;4.388;2023-03-23T13:31:43;1.95;;;0.50;;
46399;SDS011;32104;50.838;4.388;2023-03-23T13:34:31;5.03;;;0.60;;
46399;SDS011;32104;50.838;4.388;2023-03-23T13:40:30;3.15;;;0.45;;
46399;SDS011;32104;50.838;4.388;2023-03-23T13:57:20;3.55;;;0.68;;
46399;SDS011;32104;50.838;4.388;2023-03-23T13:59:58;6.78;;;0.80;;
46399;SDS011;32104;50.838;4.388;2023-03-23T14:07:56;2.15;;;0.50;;
46399;SDS011;32104;50.838;4.388;2023-03-23T14:10:25;2.58;;;0.45;;
46399;SDS011;32104;50.838;4.388;2023-03-23T14:12:57;2.28;;;0.63;;
46399;SDS011;32104;50.838;4.388;2023-03-23T14:15:28;6.18;;;0.80;;
46399;SDS011;32104;50.838;4.388;2023-03-23T14:17:55;8.27;;;0.50;;
46399;SDS011;32104;50.838;4.388;2023-03-23T14:20:32;9.25;;;0.85;;
46399;SDS011;32104;50.838;4.388;2023-03-23T14:22:59;5.57;;;0.60;;
46399;SDS011;32104;50.838;4.388;2023-03-23T14:25:26;1.33;;;0.60;;
46399;SDS011;32104;50.838;4.388;2023-03-23T14:28:35;4.70;;;0.50;;
46399;SDS011;32104;50.838;4.388;2023-03-23T14:31:00;4.78;;;0.63;;
46399;SDS011;32104;50.838;4.388;2023-03-23T14:33:26;6.13;;;0.60;;
46399;SDS011;32104;50.838;4.388;2023-03-23T14:35:52;7.45;;;1.00;;
46399;SDS011;32104;50.838;4.388;2023-03-23T14:41:45;7.63;;;0.90;;
46399;SDS011;32104;50.838;4.388;2023-03-23T14:44:16;3.15;;;0.88;;
46399;SDS011;32104;50.838;4.388;2023-03-23T14:46:46;3.28;;;0.40;;
46399;SDS011;32104;50.838;4.388;2023-03-23T14:49:19;3.20;;;0.60;;
46399;SDS011;32104;50.838;4.388;2023-03-23T14:51:51;5.55;;;0.60;;
46399;SDS011;32104;50.838;4.388;2023-03-23T14:54:28;3.80;;;0.70;;
46399;SDS011;32104;50.838;4.388;2023-03-23T15:00:23;3.63;;;0.60;;
46399;SDS011;32104;50.838;4.388;2023-03-23T15:02:55;4.70;;;1.02;;
46399;SDS011;32104;50.838;4.388;2023-03-23T15:05:26;4.68;;;0.90;;
46399;SDS011;32104;50.838;4.388;2023-03-23T15:07:56;5.10;;;0.63;;
46399;SDS011;32104;50.838;4.388;2023-03-23T15:10:28;9.25;;;0.95;;
46399;SDS011;32104;50.838;4.388;2023-03-23T15:12:54;6.53;;;0.85;;
46399;SDS011;32104;50.838;4.388;2023-03-23T18:19:30;7.53;;;1.10;;
46399;SDS011;32104;50.838;4.388;2023-03-23T18:21:58;6.15;;;0.70;;
46399;SDS011;32104;50.838;4.388;2023-03-23T18:24:24;2.45;;;0.80;;
46399;SDS011;32104;50.838;4.388;2023-03-23T18:26:50;4.40;;;0.75;;
46399;SDS011;32104;50.838;4.388;2023-03-23T18:29:16;4.25;;;0.80;;
46399;SDS011;32104;50.838;4.388;2023-03-23T18:31:41;11.93;;;0.70;;
46399;SDS011;32104;50.838;4.388;2023-03-23T18:34:08;5.45;;;0.88;;
46399;SDS011;32104;50.838;4.388;2023-03-23T18:36:34;5.25;;;0.90;;
46399;SDS011;32104;50.838;4.388;2023-03-23T18:39:00;6.35;;;1.00;;
46399;SDS011;32104;50.838;4.388;2023-03-23T18:41:26;3.58;;;0.68;;
46399;SDS011;32104;50.838;4.388;2023-03-23T18:43:52;5.75;;;0.90;;
46399;SDS011;32104;50.838;4.388;2023-03-23T18:46:20;9.95;;;0.70;;
46399;SDS011;32104;50.838;4.388;2023-03-23T18:48:46;2.63;;;0.60;;
46399;SDS011;32104;50.838;4.388;2023-03-23T18:51:12;7.28;;;1.00;;
46399;SDS011;32104;50.838;4.388;2023-03-23T18:56:23;2.60;;;0.70;;
46399;SDS011;32104;50.838;4.388;2023-03-23T18:58:50;10.77;;;0.93;;
46399;SDS011;32104;50.838;4.388;2023-03-23T19:01:17;5.70;;;1.05;;
46399;SDS011;32104;50.838;4.388;2023-03-23T19:03:43;5.47;;;0.90;;
46399;SDS011;32104;50.838;4.388;2023-03-23T19:06:17;4.68;;;0.80;;
46399;SDS011;32104;50.838;4.388;2023-03-23T19:08:48;3.33;;;0.82;;
46399;SDS011;32104;50.838;4.388;2023-03-23T19:11:16;3.13;;;0.90;;
46399;SDS011;32104;50.838;4.388;2023-03-23T19:13:43;4.88;;;0.73;;
46399;SDS011;32104;50.838;4.388;2023-03-23T19:16:09;5.00;;;1.00;;
46399;SDS011;32104;50.838;4.388;2023-03-23T19:18:35;4.60;;;0.98;;
46399;SDS011;32104;50.838;4.388;2023-03-23T19:21:01;6.88;;;1.20;;
46399;SDS011;32104;50.838;4.388;2023-03-23T19:23:27;8.45;;;1.15;;
46399;SDS011;32104;50.838;4.388;2023-03-23T19:25:54;4.18;;;1.42;;
46399;SDS011;32104;50.838;4.388;2023-03-23T19:28:21;3.45;;;0.73;;
46399;SDS011;32104;50.838;4.388;2023-03-23T19:30:51;5.90;;;0.93;;
46399;SDS011;32104;50.838;4.388;2023-03-23T19:33:19;4.65;;;0.70;;
46399;SDS011;32104;50.838;4.388;2023-03-23T19:35:49;3.63;;;1.02;;
46399;SDS011;32104;50.838;4.388;2023-03-23T19:38:20;4.75;;;0.80;;
46399;SDS011;32104;50.838;4.388;2023-03-23T19:40:54;3.85;;;0.93;;
46399;SDS011;32104;50.838;4.388;2023-03-23T19:43:25;3.55;;;0.93;;
46399;SDS011;32104;50.838;4.388;2023-03-23T19:45:55;5.88;;;0.90;;
46399;SDS011;32104;50.838;4.388;2023-03-23T19:51:27;3.35;;;0.60;;
46399;SDS011;32104;50.838;4.388;2023-03-23T19:53:57;4.22;;;0.63;;
46399;SDS011;32104;50.838;4.388;2023-03-23T19:59:49;6.25;;;0.65;;
46399;SDS011;32104;50.838;4.388;2023-03-23T20:02:15;3.17;;;0.70;;
46399;SDS011;32104;50.838;4.388;2023-03-23T20:08:04;1.42;;;0.70;;
46399;SDS011;32104;50.838;4.388;2023-03-23T20:10:30;3.65;;;0.70;;
46399;SDS011;32104;50.838;4.388;2023-03-23T20:13:02;1.33;;;0.55;;
46399;SDS011;32104;50.838;4.388;2023-03-23T20:15:29;4.75;;;0.60;;
46399;SDS011;32104;50.838;4.388;2023-03-23T20:17:56;5.72;;;0.65;;
46399;SDS011;32104;50.838;4.388;2023-03-23T20:20:23;2.80;;;0.50;;
46399;SDS011;32104;50.838;4.388;2023-03-23T20:22:49;2.85;;;0.65;;
46399;SDS011;32104;50.838;4.388;2023-03-23T20:25:15;3.65;;;0.70;;
46399;SDS011;32104;50.838;4.388;2023-03-23T20:27:41;5.30;;;0.80;;
46399;SDS011;32104;50.838;4.388;2023-03-23T20:30:10;3.42;;;0.80;;
46399;SDS011;32104;50.838;4.388;2023-03-23T20:32:37;4.25;;;0.70;;
46399;SDS011;32104;50.838;4.388;2023-03-23T20:35:06;7.03;;;0.77;;
46399;SDS011;32104;50.838;4.388;2023-03-23T20:37:35;4.35;;;0.65;;
46399;SDS011;32104;50.838;4.388;2023-03-23T20:40:06;6.28;;;0.52;;
46399;SDS011;32104;50.838;4.388;2023-03-23T20:42:57;5.22;;;0.68;;
46399;SDS011;32104;50.838;4.388;2023-03-23T20:45:25;4.72;;;0.68;;
46399;SDS011;32104;50.838;4.388;2023-03-23T20:51:13;4.90;;;0.80;;
46399;SDS011;32104;50.838;4.388;2023-03-23T20:53:46;4.22;;;0.90;;
46399;SDS011;32104;50.838;4.388;2023-03-23T20:56:13;2.63;;;0.70;;
46399;SDS011;32104;50.838;4.388;2023-03-23T20:58:40;6.80;;;1.30;;
46399;SDS011;32104;50.838;4.388;2023-03-23T21:01:06;5.93;;;0.93;;
46399;SDS011;32104;50.838;4.388;2023-03-23T21:03:36;1.83;;;0.73;;
46399;SDS011;32104;50.838;4.388;2023-03-23T21:06:03;1.10;;;0.63;;
46399;SDS011;32104;50.838;4.388;2023-03-23T21:08:33;3.75;;;0.70;;
46399;SDS011;32104;50.838;4.388;2023-03-23T21:11:00;5.10;;;0.65;;
46399;SDS011;32104;50.838;4.388;2023-03-23T21:13:27;6.10;;;0.90;;
46399;SDS011;32104;50.838;4.388;2023-03-23T21:15:53;1.27;;;0.70;;
46399;SDS011;32104;50.838;4.388;2023-03-23T21:18:19;2.78;;;0.80;;
46399;SDS011;32104;50.838;4.388;2023-03-23T21:20:46;2.50;;;0.60;;
46399;SDS011;32104;50.838;4.388;2023-03-23T21:23:14;4.22;;;1.27;;
46399;SDS011;32104;50.838;4.388;2023-03-23T21:25:41;2.53;;;0.68;;
46399;SDS011;32104;50.838;4.388;2023-03-23T21:28:09;4.75;;;0.77;;
46399;SDS011;32104;50.838;4.388;2023-03-23T21:30:36;4.43;;;0.73;;
46399;SDS011;32104;50.838;4.388;2023-03-23T21:33:05;4.95;;;1.00;;
46399;SDS011;32104;50.838;4.388;2023-03-23T21:35:32;8.45;;;0.93;;
46399;SDS011;32104;50.838;4.388;2023-03-23T21:37:57;3.20;;;0.77;;
46399;SDS011;32104;50.838;4.388;2023-03-23T21:40:23;5.53;;;1.10;;
46399;SDS011;32104;50.838;4.388;2023-03-23T21:42:50;2.72;;;0.60;;
46399;SDS011;32104;50.838;4.388;2023-03-23T21:45:17;5.43;;;0.88;;
46399;SDS011;32104;50.838;4.388;2023-03-23T21:47:45;5.25;;;0.80;;
46399;SDS011;32104;50.838;4.388;2023-03-23T21:50:11;3.42;;;0.70;;
46399;SDS011;32104;50.838;4.388;2023-03-23T21:52:38;1.10;;;0.55;;
46399;SDS011;32104;50.838;4.388;2023-03-23T21:55:26;4.40;;;0.97;;
46399;SDS011;32104;50.838;4.388;2023-03-23T21:57:59;2.15;;;0.60;;
46399;SDS011;32104;50.838;4.388;2023-03-23T22:00:25;3.67;;;0.60;;
46399;SDS011;32104;50.838;4.388;2023-03-23T22:02:51;1.65;;;0.60;;
46399;SDS011;32104;50.838;4.388;2023-03-23T22:05:17;3.17;;;0.65;;
46399;SDS011;32104;50.838;4.388;2023-03-23T22:07:43;2.63;;;0.55;;
46399;SDS011;32104;50.838;4.388;2023-03-23T22:10:10;3.47;;;0.88;;
46399;SDS011;32104;50.838;4.388;2023-03-23T22:12:37;2.45;;;0.93;;
46399;SDS011;32104;50.838;4.388;2023-03-23T22:15:12;3.80;;;0.98;;
46399;SDS011;32104;50.838;4.388;2023-03-23T22:18:29;2.80;;;0.50;;
46399;SDS011;32104;50.838;4.388;2023-03-23T22:20:59;3.67;;;0.65;;
46399;SDS011;32104;50.838;4.388;2023-03-23T22:23:25;5.18;;;0.70;;
46399;SDS011;32104;50.838;4.388;2023-03-23T22:25:51;1.52;;;0.70;;
46399;SDS011;32104;50.838;4.388;2023-03-23T22:28:18;2.45;;;0.82;;
46399;SDS011;32104;50.838;4.388;2023-03-23T22:30:45;5.75;;;0.70;;
46399;SDS011;32104;50.838;4.388;2023-03-23T22:36:33;3.58;;;0.73;;
46399;SDS011;32104;50.838;4.388;2023-03-23T22:39:01;0.70;;;0.43;;
46399;SDS011;32104;50.838;4.388;2023-03-23T22:41:31;3.20;;;0.50;;
46399;SDS011;32104;50.838;4.388;2023-03-23T22:44:00;2.03;;;0.60;;
46399;SDS011;32104;50.838;4.388;2023-03-23T22:46:30;5.43;;;0.90;;
46399;SDS011;32104;50.838;4.388;2023-03-23T22:48:56;3.15;;;0.75;;
46399;SDS011;32104;50.838;4.388;2023-03-23T22:51:24;3.45;;;0.75;;
46399;SDS011;32104;50.838;4.388;2023-03-23T22:53:50;1.38;;;0.60;;
46399;SDS011;32104;50.838;4.388;2023-03-23T22:56:16;1.60;;;0.73;;
46399;SDS011;32104;50.838;4.388;2023-03-23T22:58:42;3.42;;;0.80;;
46399;SDS011;32104;50.838;4.388;2023-03-23T23:07:26;2.90;;;0.68;;
46399;SDS011;32104;50.838;4.388;2023-03-23T23:09:51;2.72;;;0.90;;
46399;SDS011;32104;50.838;4.388;2023-03-23T23:12:20;2.58;;;0.75;;
46399;SDS011;32104;50.838;4.388;2023-03-23T23:14:46;3.00;;;0.70;;
46399;SDS011;32104;50.838;4.388;2023-03-23T23:17:16;2.63;;;0.70;;
46399;SDS011;32104;50.838;4.388;2023-03-23T23:19:42;3.63;;;0.60;;
46399;SDS011;32104;50.838;4.388;2023-03-23T23:22:11;2.45;;;0.82;;
46399;SDS011;32104;50.838;4.388;2023-03-23T23:24:37;2.78;;;0.85;;
46399;SDS011;32104;50.838;4.388;2023-03-23T23:27:03;4.78;;;0.68;;
46399;SDS011;32104;50.838;4.388;2023-03-23T23:29:32;1.48;;;0.80;;
46399;SDS011;32104;50.838;4.388;2023-03-23T23:31:58;1.42;;;0.80;;
46399;SDS011;32104;50.838;4.388;2023-03-23T23:34:27;1.05;;;0.70;;
46399;SDS011;32104;50.838;4.388;2023-03-23T23:36:56;4.43;;;0.60;;
46399;SDS011;32104;50.838;4.388;2023-03-23T23:39:27;0.90;;;0.60;;
46399;SDS011;32104;50.838;4.388;2023-03-23T23:42:02;2.65;;;0.70;;
46399;SDS011;32104;50.838;4.388;2023-03-23T23:44:29;1.70;;;0.80;;
46399;SDS011;32104;50.838;4.388;2023-03-23T23:46:58;2.53;;;0.70;;
46399;SDS011;32104;50.838;4.388;2023-03-23T23:49:25;2.35;;;0.70;;
46399;SDS011;32104;50.838;4.388;2023-03-23T23:51:53;1.80;;;0.68;;
46399;SDS011;32104;50.838;4.388;2023-03-23T23:54:19;1.65;;;0.90;;
46399;SDS011;32104;50.838;4.388;2023-03-23T23:56:47;5.75;;;0.65;;
46399;SDS011;32104;50.838;4.388;2023-03-23T23:59:15;3.88;;;0.60;;
